Time;durP1;ratioP1;P1;durP2;ratioP2;P2;SDS_P1;SDS_P2;PMS_P1;PMS_P2;Temp;Humidity;BMP_temperature;BMP_pressure;BME280_temperature;BME280_humidity;BME280_pressure;Samples;Min_cycle;Max_cycle;Signal;HPM_P1;HPM_P2
2021/04/19 00:00:20;;;;;;;11.80;6.78;;;;;;;10.46;37.13;100326.38;5036610;28;20021;-52
2021/04/19 00:02:46;;;;;;;9.25;5.55;;;;;;;10.42;37.16;100322.22;5041994;28;20022;-54
2021/04/19 00:05:15;;;;;;;9.68;6.15;;;;;;;10.50;37.33;100324.34;5042752;28;20377;-56
2021/04/19 00:07:41;;;;;;;12.55;6.32;;;;;;;10.29;37.43;100319.53;5032952;28;20018;-59
2021/04/19 00:10:08;;;;;;;14.10;5.82;;;;;;;10.07;37.91;100348.78;5047020;28;20429;-57
2021/04/19 00:12:33;;;;;;;9.13;5.72;;;;;;;10.09;37.81;100342.34;5038326;28;20545;-57
2021/04/19 00:14:59;;;;;;;11.50;5.97;;;;;;;10.22;37.47;100349.53;5039729;28;20033;-56
2021/04/19 00:17:25;;;;;;;11.63;6.18;;;;;;;9.69;37.83;100276.47;5044770;28;20078;-56
2021/04/19 00:19:50;;;;;;;10.25;5.80;;;;;;;9.94;37.71;100330.91;5033501;28;20064;-56
2021/04/19 00:22:16;;;;;;;10.38;6.13;;;;;;;9.68;37.70;100288.13;5034544;28;20029;-50
2021/04/19 00:24:41;;;;;;;7.00;3.90;;;;;;;10.26;37.46;100348.34;5039247;28;20025;-53
2021/04/19 00:27:06;;;;;;;9.52;5.28;;;;;;;10.14;37.70;100353.59;5038537;28;20044;-58
2021/04/19 00:29:32;;;;;;;13.80;6.22;;;;;;;10.00;38.04;100351.88;5044241;28;20043;-55
2021/04/19 00:31:58;;;;;;;10.68;6.38;;;;;;;9.83;37.81;100328.13;5033446;28;20365;-57
2021/04/19 00:34:23;;;;;;;10.25;6.03;;;;;;;9.72;38.09;100344.94;5044615;28;20067;-51
2021/04/19 00:36:49;;;;;;;10.27;4.60;;;;;;;10.06;37.83;100347.91;5039484;28;20451;-59
2021/04/19 00:39:14;;;;;;;11.68;5.20;;;;;;;9.52;37.75;100279.44;5036931;28;20081;-54
2021/04/19 00:41:48;;;;;;;9.25;5.47;;;;;;;9.94;38.10;100341.59;5036666;28;20404;-53
2021/04/19 00:44:14;;;;;;;10.10;5.78;;;;;;;9.77;38.40;100340.09;5045863;28;20030;-58
2021/04/19 00:46:40;;;;;;;10.18;5.63;;;;;;;9.80;38.14;100333.69;5038579;28;20060;-53
2021/04/19 00:49:05;;;;;;;10.27;5.57;;;;;;;9.74;38.03;100329.63;5046984;28;20473;-54
2021/04/19 00:51:31;;;;;;;7.53;4.30;;;;;;;9.77;38.43;100345.47;5035105;28;20029;-55
2021/04/19 00:53:57;;;;;;;9.90;4.80;;;;;;;9.68;38.01;100314.00;5046499;28;20025;-58
2021/04/19 00:56:23;;;;;;;9.73;4.10;;;;;;;10.06;37.90;100358.63;5035512;28;20029;-56
2021/04/19 00:58:48;;;;;;;8.02;5.07;;;;;;;9.91;38.06;100352.53;5040079;28;20159;-52
2021/04/19 01:01:16;;;;;;;7.35;4.75;;;;;;;9.80;38.45;100353.25;5043185;28;20119;-56
2021/04/19 01:03:43;;;;;;;6.72;4.20;;;;;;;9.89;38.05;100374.03;5033348;28;20084;-56
2021/04/19 01:06:10;;;;;;;11.40;4.85;;;;;;;9.96;37.64;100369.09;5045582;28;20053;-57
2021/04/19 01:08:36;;;;;;;7.07;4.43;;;;;;;9.71;38.23;100349.41;5037454;28;20527;-50
2021/04/19 01:11:01;;;;;;;9.18;4.53;;;;;;;9.60;38.60;100363.50;5038356;28;20112;-53
2021/04/19 01:13:27;;;;;;;7.53;4.65;;;;;;;9.27;38.44;100308.72;5044504;28;20032;-52
2021/04/19 01:15:52;;;;;;;10.38;4.35;;;;;;;9.32;38.42;100311.09;5032768;28;20036;-54
2021/04/19 01:18:18;;;;;;;7.10;4.20;;;;;;;9.72;38.35;100355.63;5043859;28;20040;-54
2021/04/19 01:20:45;;;;;;;8.90;4.97;;;;;;;9.31;38.92;100334.25;5038891;28;20029;-57
2021/04/19 01:23:13;;;;;;;9.38;4.53;;;;;;;9.51;38.97;100372.16;5037017;28;20025;-57
2021/04/19 01:25:38;;;;;;;7.35;4.50;;;;;;;9.54;38.70;100355.91;5045477;28;20036;-57
2021/04/19 01:28:04;;;;;;;10.13;4.25;;;;;;;9.13;39.22;100332.81;5033114;28;20037;-57
2021/04/19 01:30:33;;;;;;;6.88;3.53;;;;;;;9.16;39.40;100338.81;5042535;28;20461;-53
2021/04/19 01:33:00;;;;;;;10.80;4.53;;;;;;;9.29;39.12;100362.06;5040120;28;20083;-59
2021/04/19 01:35:25;;;;;;;6.45;3.90;;;;;;;9.21;39.31;100362.56;5034529;28;20341;-56
2021/04/19 01:37:51;;;;;;;7.47;4.05;;;;;;;9.21;39.45;100346.53;5045536;28;20079;-57
2021/04/19 01:40:17;;;;;;;6.72;4.03;;;;;;;9.18;39.79;100371.63;5035060;28;20025;-54
2021/04/19 01:42:44;;;;;;;6.80;4.18;;;;;;;8.92;39.16;100298.56;5040863;28;20045;-56
2021/04/19 01:45:10;;;;;;;7.88;3.95;;;;;;;9.02;39.13;100297.00;5041192;28;20067;-56
2021/04/19 01:47:36;;;;;;;8.30;3.35;;;;;;;9.44;38.97;100352.16;5044718;28;20060;-56
2021/04/19 01:50:08;;;;;;;8.13;3.40;;;;;;;9.44;39.07;100354.84;5045812;28;20067;-57
2021/04/19 01:52:34;;;;;;;8.48;3.38;;;;;;;9.37;39.35;100353.50;5036195;28;20565;-55
2021/04/19 01:55:00;;;;;;;8.90;3.72;;;;;;;9.25;39.53;100363.19;5037522;28;20021;-54
2021/04/19 01:57:25;;;;;;;6.68;3.30;;;;;;;9.36;39.33;100350.00;5036265;28;20037;-57
2021/04/19 01:59:51;;;;;;;7.80;3.55;;;;;;;9.42;39.04;100356.75;5045316;28;20083;-52
2021/04/19 02:02:28;;;;;;;5.32;3.38;;;;;;;9.30;39.17;100345.91;5034133;28;20091;-59
2021/04/19 02:05:14;;;;;;;6.60;3.38;;;;;;;9.37;39.67;100358.84;5038780;28;20366;-56
2021/04/19 02:07:59;;;;;;;8.20;4.03;;;;;;;9.30;39.50;100361.09;5044172;28;20036;-51
2021/04/19 02:10:49;;;;;;;9.90;4.68;;;;;;;9.31;39.42;100360.97;5032380;28;20108;-52
2021/04/19 02:13:49;;;;;;;6.90;4.05;;;;;;;9.40;39.56;100355.97;5035368;28;20021;-53
2021/04/19 02:16:33;;;;;;;6.60;3.90;;;;;;;9.25;39.43;100363.19;5019068;28;20074;-55
2021/04/19 02:19:14;;;;;;;8.85;4.00;;;;;;;9.17;39.63;100343.22;5038055;28;20444;-56
2021/04/19 02:21:47;;;;;;;5.90;3.50;;;;;;;8.79;39.83;100293.16;5045781;28;20025;-59
2021/04/19 02:24:17;;;;;;;5.80;3.55;;;;;;;9.02;40.12;100350.41;5018327;28;20112;-52
2021/04/19 02:26:51;;;;;;;5.80;3.13;;;;;;;9.31;39.62;100360.16;5039051;28;20522;-51
2021/04/19 02:29:24;;;;;;;6.80;3.88;;;;;;;9.40;39.48;100351.50;5025897;28;20033;-56
2021/04/19 02:31:54;;;;;;;8.43;4.28;;;;;;;9.23;39.78;100343.75;5049245;28;20040;-56
2021/04/19 02:34:21;;;;;;;9.48;3.65;;;;;;;9.42;39.44;100370.97;5036815;28;20076;-54
2021/04/19 02:36:50;;;;;;;7.00;3.70;;;;;;;9.31;39.76;100377.03;5043689;28;20068;-52
2021/04/19 02:39:17;;;;;;;6.90;3.53;;;;;;;9.26;40.01;100365.78;5046060;28;20070;-56
2021/04/19 02:41:45;;;;;;;7.78;3.70;;;;;;;9.40;39.93;100377.34;5036306;28;20037;-57
2021/04/19 02:44:11;;;;;;;9.82;4.07;;;;;;;9.41;39.94;100365.72;5048366;28;20026;-54
2021/04/19 02:46:38;;;;;;;12.00;4.10;;;;;;;9.41;39.59;100368.41;5040393;28;20476;-55
2021/04/19 02:49:06;;;;;;;7.45;3.85;;;;;;;9.40;39.35;100356.84;5049623;28;20033;-55
2021/04/19 02:51:33;;;;;;;9.32;4.00;;;;;;;9.64;39.19;100361.50;5036922;28;20018;-55
2021/04/19 02:54:01;;;;;;;7.50;3.60;;;;;;;9.67;39.18;100360.44;5048913;28;20025;-54
2021/04/19 02:56:28;;;;;;;6.25;3.63;;;;;;;9.55;39.42;100357.63;5039076;28;20020;-54
2021/04/19 02:58:57;;;;;;;3.45;2.13;;;;;;;10.00;38.80;100375.09;5032345;28;20047;-53
2021/04/19 03:01:28;;;;;;;5.70;3.45;;;;;;;9.93;38.68;100368.47;5045889;28;20062;-57
2021/04/19 03:03:55;;;;;;;5.57;3.28;;;;;;;10.09;38.67;100377.13;5035478;28;20484;-54
2021/04/19 03:06:23;;;;;;;4.40;2.88;;;;;;;9.95;38.53;100363.88;5046605;28;20053;-57
2021/04/19 03:08:56;;;;;;;6.63;3.60;;;;;;;9.84;38.72;100372.63;5040886;28;20025;-59
2021/04/19 03:11:27;;;;;;;6.70;3.40;;;;;;;10.02;38.58;100365.16;5037710;28;20025;-58
2021/04/19 03:13:54;;;;;;;4.63;2.95;;;;;;;10.01;38.57;100383.03;5048630;28;20112;-55
2021/04/19 03:16:27;;;;;;;10.00;3.38;;;;;;;10.10;38.53;100370.81;5037170;28;20028;-56
2021/04/19 03:18:54;;;;;;;6.20;3.05;;;;;;;10.05;38.62;100368.47;5041414;28;20372;-53
2021/04/19 03:21:21;;;;;;;5.72;3.17;;;;;;;9.41;38.19;100238.28;5045012;28;20029;-58
2021/04/19 03:23:53;;;;;;;4.78;1.90;;;;;;;10.54;37.79;100384.75;5035125;28;20034;-53
2021/04/19 03:26:21;;;;;;;8.85;3.28;;;;;;;10.49;37.24;100368.16;5046269;28;20022;-55
2021/04/19 03:28:49;;;;;;;6.93;3.42;;;;;;;10.37;38.03;100377.88;5040608;28;20118;-55
2021/04/19 03:31:24;;;;;;;4.78;3.00;;;;;;;10.68;37.28;100380.19;5038745;28;20021;-57
2021/04/19 03:33:53;;;;;;;4.53;2.50;;;;;;;10.94;36.94;100391.69;5047766;28;20056;-57
2021/04/19 03:36:20;;;;;;;6.25;2.90;;;;;;;10.87;36.54;100366.34;5036995;28;20028;-57
2021/04/19 03:38:48;;;;;;;7.13;2.83;;;;;;;10.77;36.72;100342.88;5042157;28;20022;-57
2021/04/19 03:41:16;;;;;;;5.50;2.97;;;;;;;10.57;36.66;100281.91;5044250;28;20029;-58
2021/04/19 03:43:50;;;;;;;8.48;3.13;;;;;;;11.55;35.98;100393.44;5035026;28;20057;-58
2021/04/19 03:46:18;;;;;;;6.03;3.25;;;;;;;11.91;34.83;100369.28;5046639;28;20029;-56
2021/04/19 03:48:44;;;;;;;7.30;3.10;;;;;;;11.56;34.91;100322.75;5039869;28;20410;-57
2021/04/19 03:51:13;;;;;;;9.02;3.10;;;;;;;11.60;34.73;100355.56;5038433;28;20102;-56
2021/04/19 03:53:39;;;;;;;8.02;3.30;;;;;;;11.71;34.96;100370.81;5047071;28;20490;-53
2021/04/19 03:56:06;;;;;;;6.85;3.30;;;;;;;11.83;34.76;100344.88;5033893;28;20025;-59
2021/04/19 03:58:34;;;;;;;7.07;3.35;;;;;;;12.68;33.72;100389.25;5043955;28;20018;-56
2021/04/19 04:01:04;;;;;;;7.32;3.30;;;;;;;13.18;32.75;100366.41;5041682;28;20074;-58
2021/04/19 04:03:30;;;;;;;6.68;3.35;;;;;;;13.99;31.66;100375.84;5035628;28;20072;-57
2021/04/19 04:05:57;;;;;;;8.63;3.42;;;;;;;14.72;30.37;100370.38;5047094;28;20210;-58
2021/04/19 04:08:24;;;;;;;7.95;3.45;;;;;;;14.74;29.40;100368.41;5036583;28;20497;-57
2021/04/19 04:10:50;;;;;;;7.82;3.40;;;;;;;14.39;30.15;100371.50;5041178;28;20476;-59
2021/04/19 04:13:18;;;;;;;6.35;3.08;;;;;;;14.11;30.45;100376.63;5043962;28;20024;-56
2021/04/19 04:15:51;;;;;;;8.10;3.20;;;;;;;13.93;31.18;100378.06;5033693;28;20440;-59
2021/04/19 04:18:18;;;;;;;10.80;3.53;;;;;;;13.56;31.71;100378.53;5045520;28;20017;-59
2021/04/19 04:20:43;;;;;;;8.40;3.75;;;;;;;13.31;32.19;100385.06;5038907;28;20028;-59
2021/04/19 04:23:09;;;;;;;7.15;2.78;;;;;;;13.03;32.52;100377.47;5030334;28;20033;-57
2021/04/19 04:25:35;;;;;;;5.85;3.28;;;;;;;12.83;33.24;100380.94;5046490;28;20033;-57
2021/04/19 04:28:03;;;;;;;8.50;3.10;;;;;;;12.78;33.50;100383.97;5033842;28;20144;-57
2021/04/19 04:30:31;;;;;;;5.97;3.22;;;;;;;12.83;33.43;100371.03;5036608;28;20372;-59
2021/04/19 04:32:56;;;;;;;8.57;3.28;;;;;;;13.25;32.70;100383.72;5040079;28;20029;-54
2021/04/19 04:35:22;;;;;;;7.78;3.78;;;;;;;13.72;32.01;100361.06;5037660;28;20032;-57
2021/04/19 04:37:47;;;;;;;5.28;3.10;;;;;;;14.15;31.40;100368.13;5046687;28;20544;-57
2021/04/19 04:40:13;;;;;;;8.43;3.17;;;;;;;14.35;30.70;100308.97;5033467;28;20179;-57
2021/04/19 04:42:41;;;;;;;7.70;3.22;;;;;;;15.29;29.43;100352.69;5030028;28;20505;-54
2021/04/19 04:45:07;;;;;;;6.82;3.40;;;;;;;15.91;28.42;100366.75;5041851;28;20064;-56
2021/04/19 04:47:41;;;;;;;8.48;3.17;;;;;;;17.15;27.05;100375.59;5034248;28;20109;-50
2021/04/19 04:50:13;;;;;;;6.95;3.50;;;;;;;17.35;26.07;100362.75;5017513;28;20110;-59
2021/04/19 04:52:48;;;;;;;6.38;3.30;;;;;;;17.42;25.62;100308.03;5041220;28;20079;-56
2021/04/19 04:55:15;;;;;;;11.20;3.58;;;;;;;18.85;24.63;100372.69;5031040;28;20026;-57
2021/04/19 04:57:44;;;;;;;7.72;3.72;;;;;;;19.84;23.44;100366.53;5045225;28;20494;-58
2021/04/19 05:00:11;;;;;;;9.40;3.00;;;;;;;20.37;22.61;100371.56;5018573;28;20113;-58
2021/04/19 05:02:37;;;;;;;5.85;3.45;;;;;;;19.84;22.47;100373.84;5042764;28;20603;-57
2021/04/19 05:05:03;;;;;;;6.80;2.90;;;;;;;19.78;22.95;100364.53;5041158;28;20099;-56
2021/04/19 05:07:29;;;;;;;8.88;3.28;;;;;;;19.75;23.07;100364.84;5035007;28;20385;-59
2021/04/19 05:09:55;;;;;;;4.78;3.08;;;;;;;19.92;22.61;100371.16;5046048;28;20460;-57
2021/04/19 05:12:21;;;;;;;6.28;2.92;;;;;;;19.73;22.71;100373.19;5034901;28;20486;-57
2021/04/19 05:15:00;;;;;;;7.30;3.25;;;;;;;19.93;22.31;100365.53;5040458;28;20033;-60
2021/04/19 05:17:28;;;;;;;7.03;3.25;;;;;;;20.11;22.10;100369.94;5043902;28;20110;-57
2021/04/19 05:19:53;;;;;;;6.45;3.28;;;;;;;20.58;21.87;100370.13;5033247;28;20272;-59
2021/04/19 05:22:20;;;;;;;8.43;3.35;;;;;;;20.92;21.15;100371.69;5044487;28;20429;-58
2021/04/19 05:24:45;;;;;;;7.43;2.58;;;;;;;20.83;20.32;100370.88;5038663;28;20108;-57
2021/04/19 05:27:16;;;;;;;9.55;3.58;;;;;;;19.25;22.16;100367.53;5037442;28;20039;-58
2021/04/19 05:29:42;;;;;;;6.38;3.10;;;;;;;18.60;23.23;100366.34;5046001;28;20024;-53
2021/04/19 05:32:08;;;;;;;6.43;2.80;;;;;;;18.22;23.75;100331.44;5032716;28;20098;-58
2021/04/19 05:34:37;;;;;;;7.15;3.03;;;;;;;18.48;23.58;100372.03;5040365;28;20018;-58
2021/04/19 05:37:04;;;;;;;8.20;2.80;;;;;;;18.42;23.90;100374.53;5039975;28;20021;-57
2021/04/19 05:39:33;;;;;;;7.93;3.30;;;;;;;18.21;23.96;100370.38;5034306;28;20021;-59
2021/04/19 05:42:01;;;;;;;5.43;3.13;;;;;;;18.15;24.12;100388.13;5044173;28;20063;-58
2021/04/19 05:44:26;;;;;;;6.65;3.10;;;;;;;17.70;24.55;100373.72;5035364;28;20122;-56
2021/04/19 05:46:53;;;;;;;9.63;3.00;;;;;;;17.42;25.00;100381.94;5039249;28;20479;-57
2021/04/19 05:49:19;;;;;;;6.63;3.40;;;;;;;17.32;24.90;100370.34;5042478;28;20116;-58
2021/04/19 05:51:46;;;;;;;9.15;3.42;;;;;;;16.96;25.54;100372.97;5032563;28;20112;-57
2021/04/19 05:54:14;;;;;;;5.28;2.95;;;;;;;16.37;26.48;100376.84;5044866;28;20423;-57
2021/04/19 05:56:58;;;;;;;11.18;3.03;;;;;;;15.60;26.90;100275.13;5037274;28;20052;-56
2021/04/19 05:59:29;;;;;;;10.90;4.95;;;;;;;16.04;27.45;100377.25;5035091;28;20241;-57
2021/04/19 06:01:57;;;;;;;8.45;3.17;;;;;;;15.71;27.99;100400.16;5045397;28;20098;-57
2021/04/19 06:04:34;;;;;;;5.97;2.85;;;;;;;15.35;28.28;100390.75;5036510;28;20435;-54
2021/04/19 06:07:08;;;;;;;5.13;2.47;;;;;;;14.99;28.81;100389.56;5042187;28;20045;-56
2021/04/19 06:09:39;;;;;;;4.60;2.90;;;;;;;14.78;29.70;100394.09;5048799;28;20545;-56
2021/04/19 06:12:11;;;;;;;6.82;3.38;;;;;;;14.60;29.92;100374.13;5036136;28;20472;-57
2021/04/19 06:14:41;;;;;;;7.28;3.22;;;;;;;15.38;28.88;100402.25;5045317;28;20022;-56
2021/04/19 06:17:08;;;;;;;9.68;3.22;;;;;;;15.76;28.01;100357.38;5043445;28;20547;-57
2021/04/19 06:19:38;;;;;;;6.50;2.70;;;;;;;16.28;27.25;100393.94;5037590;28;20025;-60
2021/04/19 06:22:05;;;;;;;10.35;2.70;;;;;;;16.47;27.10;100402.00;5049824;28;20022;-59
2021/04/19 06:24:31;;;;;;;5.15;2.78;;;;;;;16.70;26.75;100401.59;5039610;28;20423;-57
2021/04/19 06:26:58;;;;;;;7.20;3.67;;;;;;;16.60;26.34;100344.00;5042497;28;20021;-55
2021/04/19 06:29:28;;;;;;;4.43;2.53;;;;;;;17.17;26.08;100389.81;5047616;28;20033;-60
2021/04/19 06:31:54;;;;;;;7.97;2.65;;;;;;;17.47;25.53;100376.06;5036337;28;20045;-58
2021/04/19 06:34:19;;;;;;;6.15;2.50;;;;;;;18.26;24.87;100383.44;5035744;28;20040;-57
2021/04/19 06:36:47;;;;;;;8.07;3.47;;;;;;;18.17;24.38;100402.38;5033517;28;20025;-53
2021/04/19 06:39:14;;;;;;;8.32;3.40;;;;;;;17.78;24.56;100376.50;5040105;28;20025;-57
2021/04/19 06:41:42;;;;;;;4.47;2.90;;;;;;;17.84;24.63;100406.66;5049004;28;20025;-55
2021/04/19 06:44:08;;;;;;;9.15;3.53;;;;;;;18.03;24.40;100400.22;5020058;28;20809;-56
2021/04/19 06:46:40;;;;;;;9.07;3.47;;;;;;;19.24;23.31;100395.69;5045269;28;20030;-58
2021/04/19 06:49:07;;;;;;;9.45;3.63;;;;;;;20.74;21.25;100405.44;5024305;28;20096;-60
2021/04/19 06:51:34;;;;;;;5.68;3.00;;;;;;;21.43;20.13;100375.78;5015929;28;20035;-62
2021/04/19 06:54:00;;;;;;;9.88;3.17;;;;;;;22.04;19.35;100331.31;5021175;28;20404;-60
2021/04/19 06:56:29;;;;;;;4.97;3.40;;;;;;;24.69;17.49;100384.59;5031915;28;20017;-62
2021/04/19 06:58:56;;;;;;;6.43;3.03;;;;;;;26.90;15.57;100382.16;5040857;28;20080;-62
2021/04/19 07:01:23;;;;;;;8.05;2.90;;;;;;;27.86;13.76;100398.69;5025852;28;20041;-61
2021/04/19 07:03:55;;;;;;;5.63;3.03;;;;;;;28.65;13.13;100381.59;5046277;28;20032;-60
2021/04/19 07:06:26;;;;;;;6.95;3.30;;;;;;;29.54;12.47;100373.84;5036809;28;20025;-59
2021/04/19 07:08:58;;;;;;;5.35;3.05;;;;;;;30.68;11.84;100375.66;5019468;28;20095;-62
2021/04/19 07:11:26;;;;;;;7.85;2.97;;;;;;;31.50;11.21;100343.19;5041798;28;20383;-62
2021/04/19 07:13:53;;;;;;;7.13;2.92;;;;;;;32.84;10.61;100390.56;5023631;28;20029;-61
2021/04/19 07:16:19;;;;;;;6.50;2.97;;;;;;;34.29;9.78;100376.03;5026993;28;20021;-61
2021/04/19 07:18:45;;;;;;;5.03;2.80;;;;;;;35.62;8.48;100390.66;5040876;28;20044;-62
2021/04/19 07:21:11;;;;;;;5.35;2.90;;;;;;;36.65;8.02;100383.22;5038463;28;20022;-60
2021/04/19 07:23:37;;;;;;;5.32;2.60;;;;;;;37.49;6.85;100370.50;5047258;28;20956;-60
2021/04/19 07:26:06;;;;;;;4.03;3.13;;;;;;;36.37;7.05;100391.13;5034946;28;20070;-60
2021/04/19 07:28:36;;;;;;;8.43;3.42;;;;;;;35.74;7.17;100384.81;5044108;28;20032;-61
2021/04/19 07:31:06;;;;;;;7.38;3.25;;;;;;;35.22;7.85;100378.38;5039113;28;20025;-61
2021/04/19 07:33:34;;;;;;;4.50;3.17;;;;;;;35.80;7.61;100382.88;5035699;28;20453;-61
2021/04/19 07:36:22;;;;;;;7.05;3.38;;;;;;;36.40;7.81;100403.69;5047917;28;20083;-59
2021/04/19 07:38:48;;;;;;;5.85;3.22;;;;;;;35.00;7.51;100381.34;5024651;28;20087;-59
2021/04/19 07:41:14;;;;;;;10.10;3.33;;;;;;;34.21;8.15;100382.13;5029120;28;20029;-60
2021/04/19 07:43:42;;;;;;;5.25;3.00;;;;;;;34.43;7.49;100383.91;5026558;28;20045;-61
2021/04/19 07:46:08;;;;;;;4.38;3.00;;;;;;;34.22;7.87;100387.41;5029833;28;20104;-61
2021/04/19 07:48:59;;;;;;;5.13;3.85;;;;;;;33.69;8.11;100394.78;5029224;28;20530;-61
2021/04/19 07:51:34;;;;;;;6.90;3.42;;;;;;;31.97;9.06;100382.72;5029554;28;20033;-62
2021/04/19 07:54:09;;;;;;;9.45;3.33;;;;;;;31.04;9.74;100393.78;5033137;28;20412;-61
2021/04/19 07:56:34;;;;;;;9.85;3.55;;;;;;;31.12;9.89;100394.50;5031617;28;20380;-61
2021/04/19 07:59:39;;;;;;;4.97;3.03;;;;;;;32.20;9.43;100393.59;5021981;28;20038;-64
2021/04/19 08:02:12;;;;;;;9.25;3.13;;;;;;;32.20;9.09;100392.75;5035225;28;20033;-60
2021/04/19 08:04:47;;;;;;;6.80;3.15;;;;;;;32.26;9.23;100385.34;5032880;28;20025;-60
2021/04/19 08:07:28;;;;;;;;;;;;;;;32.54;8.69;100389.91;5027580;28;20069;-60
2021/04/19 08:10:04;;;;;;;5.03;3.47;;;;;;;28.07;11.32;100393.84;5039535;28;20310;-60
2021/04/19 08:12:40;;;;;;;11.27;3.35;;;;;;;25.31;13.84;100401.06;5014355;28;20038;-60
2021/04/19 08:15:12;;;;;;;6.22;3.50;;;;;;;24.09;15.09;100406.97;5033424;28;20208;-60
2021/04/19 08:17:38;;;;;;;8.80;3.53;;;;;;;22.97;16.00;100404.59;5044978;28;20052;-61
2021/04/19 08:20:12;;;;;;;8.77;3.65;;;;;;;22.57;16.38;100390.41;5033468;28;20063;-64
2021/04/19 08:22:39;;;;;;;8.52;3.70;;;;;;;20.87;18.14;100407.63;5034087;28;20033;-62
2021/04/19 08:25:13;;;;;;;6.35;3.58;;;;;;;19.73;19.08;100353.28;5037446;28;20025;-63
2021/04/19 08:27:41;;;;;;;7.40;3.10;;;;;;;19.58;19.79;100399.31;5045276;28;20151;-58
2021/04/19 08:30:10;;;;;;;10.45;3.40;;;;;;;19.60;19.40;100409.00;5029505;28;20091;-62
2021/04/19 08:32:35;;;;;;;11.32;3.58;;;;;;;19.24;19.99;100413.88;5038904;28;20025;-63
2021/04/19 08:35:03;;;;;;;11.48;3.58;;;;;;;19.06;19.93;100388.56;5037840;28;20060;-65
2021/04/19 08:37:29;;;;;;;8.20;3.50;;;;;;;19.49;19.41;100398.44;5045673;28;20028;-64
2021/04/19 08:40:01;;;;;;;10.40;3.35;;;;;;;18.71;20.42;100397.75;5033740;28;20029;-63
2021/04/19 08:42:28;;;;;;;11.65;3.78;;;;;;;17.66;21.13;100326.28;5043038;28;20132;-65
2021/04/19 08:44:59;;;;;;;11.70;3.75;;;;;;;17.82;21.82;100392.44;5040839;28;20342;-67
2021/04/19 08:47:28;;;;;;;8.23;3.42;;;;;;;17.20;22.38;100377.84;5048676;28;20384;-57
2021/04/19 08:49:58;;;;;;;8.77;3.63;;;;;;;17.55;22.27;100388.84;5033605;28;20278;-58
2021/04/19 08:52:25;;;;;;;6.53;4.10;;;;;;;17.48;22.49;100402.13;5042230;28;20107;-61
2021/04/19 08:54:52;;;;;;;6.90;4.03;;;;;;;17.45;22.51;100397.03;5032783;28;20037;-60
2021/04/19 08:57:18;;;;;;;9.38;4.00;;;;;;;17.71;22.34;100385.41;5028771;28;20482;-59
2021/04/19 08:59:45;;;;;;;7.93;3.78;;;;;;;17.67;21.96;100308.22;5042505;28;20030;-60
2021/04/19 09:02:15;;;;;;;17.38;3.80;;;;;;;18.47;21.31;100375.75;5037932;28;20067;-60
2021/04/19 09:04:41;;;;;;;6.95;3.72;;;;;;;18.61;20.96;100349.88;5041735;28;20341;-70
2021/04/19 09:07:07;;;;;;;6.72;3.63;;;;;;;18.95;20.74;100380.69;5020472;28;20036;-65
2021/04/19 09:09:32;;;;;;;8.95;3.95;;;;;;;19.20;20.57;100369.91;5017989;28;20022;-60
2021/04/19 09:12:18;;;;;;;10.32;4.13;;;;;;;19.56;20.42;100375.06;5018894;28;20510;-60
2021/04/19 09:14:44;;;;;;;8.90;4.68;;;;;;;19.64;20.11;100360.59;5036291;28;20099;-61
2021/04/19 09:17:09;;;;;;;9.27;3.80;;;;;;;19.61;20.02;100366.38;5029642;28;20469;-61
2021/04/19 09:19:37;;;;;;;8.32;4.93;;;;;;;19.71;20.01;100374.34;5037993;28;20523;-58
2021/04/19 09:22:13;;;;;;;7.50;4.20;;;;;;;19.18;20.28;100380.09;5035697;28;20112;-60
2021/04/19 09:25:01;;;;;;;8.82;3.53;;;;;;;18.87;20.55;100397.78;5039976;28;20069;-62
2021/04/19 09:28:03;;;;;;;10.63;4.20;;;;;;;18.65;20.54;100380.25;5045050;28;20104;-61
2021/04/19 09:30:32;;;;;;;7.22;4.13;;;;;;;18.29;20.95;100374.97;5054811;28;20025;-60
2021/04/19 09:33:04;;;;;;;6.45;4.20;;;;;;;17.95;21.32;100403.69;5047724;28;20055;-60
2021/04/19 09:35:41;;;;;;;9.80;4.30;;;;;;;17.71;21.59;100380.81;5033133;28;20620;-60
2021/04/19 09:38:31;;;;;;;7.82;3.83;;;;;;;17.54;21.80;100377.13;5018740;28;20021;-61
2021/04/19 09:41:01;;;;;;;9.02;4.35;;;;;;;17.33;22.06;100382.88;5036243;28;20160;-61
2021/04/19 09:43:49;;;;;;;14.93;4.55;;;;;;;17.04;22.17;100354.19;5044527;28;20092;-58
2021/04/19 09:46:17;;;;;;;10.35;4.30;;;;;;;16.75;22.64;100365.97;5028656;28;20538;-63
2021/04/19 09:48:53;;;;;;;6.78;4.05;;;;;;;17.15;22.50;100393.69;5038573;28;20032;-61
2021/04/19 09:51:20;;;;;;;;;;;;;;;17.39;21.93;100379.53;5039365;28;20037;-65
2021/04/19 09:53:56;;;;;;;8.23;4.53;;;;;;;17.05;22.39;100381.06;5033139;28;20363;-63
2021/04/19 09:56:40;;;;;;;8.52;4.60;;;;;;;17.11;22.31;100376.91;5037679;28;20084;-63
2021/04/19 09:59:08;;;;;;;8.48;4.38;;;;;;;16.93;22.40;100374.16;5037530;28;20120;-63
2021/04/19 10:01:36;;;;;;;10.65;5.53;;;;;;;17.10;22.15;100363.53;5030097;28;20053;-58
2021/04/19 10:04:02;;;;;;;8.88;5.60;;;;;;;17.52;21.82;100379.16;5045247;28;20051;-59
2021/04/19 10:06:28;;;;;;;10.23;7.28;;;;;;;17.47;21.65;100382.31;5036253;28;20021;-60
2021/04/19 10:08:56;;;;;;;8.55;5.72;;;;;;;17.35;21.71;100384.41;5037455;28;20449;-61
2021/04/19 10:11:28;;;;;;;7.65;4.93;;;;;;;17.11;21.64;100338.16;5036604;28;20091;-64
2021/04/19 10:13:55;;;;;;;9.15;4.78;;;;;;;17.20;22.05;100378.69;5029032;28;20606;-61
2021/04/19 10:16:21;;;;;;;9.93;5.03;;;;;;;17.32;22.04;100368.47;5035788;28;20025;-61
2021/04/19 10:18:51;;;;;;;8.20;4.90;;;;;;;17.22;21.75;100383.97;5039375;28;20383;-61
2021/04/19 10:21:31;;;;;;;9.65;4.43;;;;;;;17.36;22.03;100387.97;5043800;28;20066;-59
2021/04/19 10:23:58;;;;;;;6.05;3.45;;;;;;;17.38;21.70;100377.84;5032103;28;20041;-56
2021/04/19 10:26:35;;;;;;;7.40;4.18;;;;;;;17.01;22.36;100385.09;5041024;28;20056;-57
2021/04/19 10:29:09;;;;;;;5.60;4.03;;;;;;;16.97;22.53;100383.66;5038635;28;20466;-58
2021/04/19 10:31:35;;;;;;;9.45;4.15;;;;;;;16.86;22.31;100343.28;5044998;28;20037;-61
2021/04/19 10:34:10;;;;;;;6.65;3.42;;;;;;;17.26;22.17;100392.63;5031021;28;20044;-63
2021/04/19 10:36:42;;;;;;;6.28;3.17;;;;;;;17.05;22.08;100388.34;5038457;28;20041;-63
2021/04/19 10:39:14;;;;;;;8.73;3.88;;;;;;;16.92;22.33;100385.97;5026503;28;20104;-64
2021/04/19 10:41:40;;;;;;;4.65;3.30;;;;;;;16.80;22.48;100377.22;5032611;28;20556;-61
2021/04/19 10:44:08;;;;;;;8.73;3.55;;;;;;;16.98;22.06;100370.97;5015616;28;20384;-61
2021/04/19 10:46:37;;;;;;;6.07;2.30;;;;;;;17.42;21.90;100400.06;5039183;28;20461;-57
2021/04/19 10:49:04;;;;;;;8.02;3.15;;;;;;;17.06;21.97;100374.66;5032777;28;20044;-60
2021/04/19 10:51:37;;;;;;;10.20;3.78;;;;;;;16.17;22.30;100274.28;5033487;28;20033;-61
2021/04/19 10:54:06;;;;;;;5.50;3.25;;;;;;;16.62;22.62;100380.72;5036714;28;20017;-60
2021/04/19 10:56:34;;;;;;;7.35;3.33;;;;;;;16.45;22.79;100355.34;5038618;28;20116;-57
2021/04/19 10:59:04;;;;;;;4.82;3.10;;;;;;;16.67;22.67;100372.16;5034122;28;20156;-58
2021/04/19 11:01:32;;;;;;;8.52;3.47;;;;;;;16.29;22.79;100323.56;5042226;28;20033;-60
2021/04/19 11:04:03;;;;;;;5.35;3.20;;;;;;;16.53;23.05;100351.91;5048396;28;20021;-60
2021/04/19 11:06:28;;;;;;;4.85;3.08;;;;;;;16.57;22.92;100357.84;5039845;28;20029;-58
2021/04/19 11:09:02;;;;;;;12.32;3.78;;;;;;;16.86;22.70;100376.59;5040924;28;20032;-59
2021/04/19 11:11:28;;;;;;;5.72;3.33;;;;;;;17.13;22.41;100374.06;5046500;28;20469;-60
2021/04/19 11:14:04;;;;;;;6.20;3.10;;;;;;;16.74;22.66;100351.63;5035725;28;20083;-61
2021/04/19 11:16:30;;;;;;;11.98;3.58;;;;;;;16.86;22.78;100373.03;5028461;28;20028;-58
2021/04/19 11:18:55;;;;;;;13.40;3.75;;;;;;;16.42;22.65;100309.69;5040701;28;20022;-58
2021/04/19 11:21:29;;;;;;;10.80;3.60;;;;;;;16.82;23.02;100372.50;5029549;28;20029;-61
2021/04/19 11:24:12;;;;;;;6.22;3.40;;;;;;;16.85;22.18;100387.56;5023806;28;20430;-63
2021/04/19 11:26:39;;;;;;;5.18;3.35;;;;;;;16.62;22.54;100380.72;5047090;28;20043;-62
2021/04/19 11:29:06;;;;;;;5.50;3.10;;;;;;;16.23;22.87;100316.03;5037896;28;20337;-63
2021/04/19 11:31:40;;;;;;;7.45;3.30;;;;;;;16.60;23.02;100354.81;5047819;28;20044;-61
2021/04/19 11:34:17;;;;;;;7.47;2.78;;;;;;;16.81;22.66;100368.09;5019410;28;20021;-57
2021/04/19 11:36:45;;;;;;;7.38;2.95;;;;;;;16.59;22.68;100351.28;5041697;28;20041;-61